Time;durP1;ratioP1;P1;durP2;ratioP2;P2;SDS_P1;SDS_P2;PMS_P1;PMS_P2;Temp;Humidity;BMP_temperature;BMP_pressure;BME280_temperature;BME280_humidity;BME280_pressure;Samples;Min_cycle;Max_cycle;Signal;HPM_P1;HPM_P2
2023/04/14 00:03:27;;;;;;;11.38;5.43;;;;;;;-146.07;100.00;70291.31;10433169;28;20037;-76
2023/04/14 00:08:27;;;;;;;10.75;4.55;;;;;;;-146.07;100.00;70291.31;10444489;28;20481;-77
2023/04/14 00:13:28;;;;;;;10.18;4.70;;;;;;;-146.07;100.00;70291.31;10439482;28;20033;-77
2023/04/14 00:18:28;;;;;;;11.67;5.47;;;;;;;-146.07;100.00;70291.31;10420360;28;20056;-77
2023/04/14 00:23:28;;;;;;;7.47;4.13;;;;;;;-146.07;100.00;70291.31;10435979;28;20279;-78
2023/04/14 00:28:29;;;;;;;9.07;5.43;;;;;;;-146.07;100.00;70291.31;10438470;28;20455;-77
2023/04/14 00:33:29;;;;;;;6.90;4.37;;;;;;;-146.07;100.00;70291.31;10410370;28;20271;-77
2023/04/14 00:38:30;;;;;;;14.55;4.65;;;;;;;-146.07;100.00;70291.31;10431563;28;20819;-77
2023/04/14 00:43:30;;;;;;;9.18;4.55;;;;;;;-146.07;100.00;70291.31;10434389;28;20037;-77
2023/04/14 00:48:31;;;;;;;8.68;4.80;;;;;;;-146.07;100.00;70291.31;10434855;28;20051;-76
2023/04/14 00:53:32;;;;;;;8.93;5.43;;;;;;;-146.07;100.00;70291.31;10432756;28;22210;-76
2023/04/14 00:58:32;;;;;;;8.85;4.53;;;;;;;-146.07;100.00;70291.31;10419629;28;20037;-76
2023/04/14 01:03:35;;;;;;;12.25;5.72;;;;;;;-146.07;100.00;70291.31;10432808;28;20439;-77
2023/04/14 01:08:35;;;;;;;10.95;5.10;;;;;;;-146.07;100.00;70291.31;10435943;28;20119;-76
2023/04/14 01:13:45;;;;;;;8.75;5.10;;;;;;;-146.07;100.00;70291.31;10435723;28;20032;-76
2023/04/14 01:19:07;;;;;;;10.07;4.35;;;;;;;-146.07;100.00;70291.31;10437464;28;20048;-76
2023/04/14 01:24:52;;;;;;;8.77;4.35;;;;;;;-146.07;100.00;70291.31;10423973;28;20427;-77
2023/04/14 01:30:08;;;;;;;13.02;4.57;;;;;;;-146.07;100.00;70291.31;10427810;28;20169;-77
2023/04/14 01:35:19;;;;;;;14.95;5.05;;;;;;;-146.07;100.00;70291.31;10437611;28;20132;-77
2023/04/14 01:40:22;;;;;;;9.50;4.88;;;;;;;-146.07;100.00;70291.31;10442803;28;20043;-77
2023/04/14 01:45:25;;;;;;;12.75;5.10;;;;;;;-146.07;100.00;70291.31;10443356;28;20033;-77
2023/04/14 01:50:27;;;;;;;5.93;3.92;;;;;;;-146.07;100.00;70291.31;10431485;28;20481;-77
2023/04/14 01:55:30;;;;;;;10.10;5.35;;;;;;;-146.07;100.00;70291.31;10433246;28;20353;-77
2023/04/14 02:00:32;;;;;;;9.77;4.63;;;;;;;-146.07;100.00;70291.31;10425118;28;20028;-77
2023/04/14 02:05:35;;;;;;;9.85;4.80;;;;;;;-146.07;100.00;70291.31;10437311;28;20089;-78
2023/04/14 02:10:38;;;;;;;8.40;4.20;;;;;;;-146.07;100.00;70291.31;10423951;28;20542;-76
2023/04/14 02:15:39;;;;;;;11.27;4.65;;;;;;;-146.07;100.00;70291.31;10434325;28;20048;-77
2023/04/14 02:20:43;;;;;;;11.18;4.70;;;;;;;-146.07;100.00;70291.31;10428703;28;20071;-77
2023/04/14 02:25:59;;;;;;;8.15;4.75;;;;;;;-146.07;100.00;70291.31;10429889;28;20017;-77
2023/04/14 02:31:06;;;;;;;13.05;3.90;;;;;;;-146.07;100.00;70291.31;10426635;28;20487;-73
2023/04/14 02:36:17;;;;;;;8.90;4.72;;;;;;;-146.07;100.00;70291.31;10432329;28;20376;-74
2023/04/14 02:41:31;;;;;;;11.43;4.80;;;;;;;-146.07;100.00;70291.31;10395562;28;20787;-74
2023/04/14 02:46:38;;;;;;;11.55;5.30;;;;;;;-146.07;100.00;70291.31;10402653;28;20037;-75
2023/04/14 02:51:40;;;;;;;12.40;5.05;;;;;;;-146.07;100.00;70291.31;10395530;28;20500;-74
2023/04/14 02:56:41;;;;;;;7.22;4.10;;;;;;;-146.07;100.00;70291.31;10385426;28;20029;-72
2023/04/14 03:01:42;;;;;;;10.55;5.00;;;;;;;-146.07;100.00;70291.31;10385088;28;20032;-73
2023/04/14 03:06:43;;;;;;;5.93;3.88;;;;;;;-146.07;100.00;70291.31;10379642;28;20088;-73
2023/04/14 03:11:45;;;;;;;9.68;4.43;;;;;;;-146.07;100.00;70291.31;10379436;28;20098;-73
2023/04/14 03:16:47;;;;;;;7.47;4.35;;;;;;;-146.07;100.00;70291.31;10383162;28;20045;-73
2023/04/14 03:21:53;;;;;;;13.52;4.43;;;;;;;-146.07;100.00;70291.31;10384338;28;20037;-73
2023/04/14 03:26:58;;;;;;;5.63;4.03;;;;;;;-146.07;100.00;70291.31;10417934;28;20119;-72
2023/04/14 03:32:01;;;;;;;12.07;4.43;;;;;;;-146.07;100.00;70291.31;10420393;28;20119;-73
2023/04/14 03:37:04;;;;;;;8.35;4.40;;;;;;;-146.07;100.00;70291.31;10419725;28;20025;-72
2023/04/14 03:42:07;;;;;;;8.90;3.70;;;;;;;-146.07;100.00;70291.31;10415811;28;20175;-72
2023/04/14 03:47:09;;;;;;;12.43;5.30;;;;;;;-146.07;100.00;70291.31;10416973;28;20037;-72
2023/04/14 03:52:12;;;;;;;5.38;3.70;;;;;;;-146.07;100.00;70291.31;10416367;28;20044;-72
2023/04/14 03:57:16;;;;;;;5.20;3.10;;;;;;;-146.07;100.00;70291.31;10419463;28;20082;-71
2023/04/14 04:02:18;;;;;;;4.30;3.00;;;;;;;-146.07;100.00;70291.31;10398127;28;20465;-72
2023/04/14 04:07:19;;;;;;;4.53;2.85;;;;;;;-146.07;100.00;70291.31;10405831;28;20033;-71
2023/04/14 04:12:22;;;;;;;6.43;2.88;;;;;;;-146.07;100.00;70291.31;10419449;28;20049;-72
2023/04/14 04:17:23;;;;;;;4.65;3.00;;;;;;;-146.07;100.00;70291.31;10404065;28;20511;-73
2023/04/14 04:22:26;;;;;;;4.75;3.10;;;;;;;-146.07;100.00;70291.31;10406261;28;20037;-72
2023/04/14 04:27:27;;;;;;;7.57;3.90;;;;;;;-146.07;100.00;70291.31;10386716;28;20025;-72
2023/04/14 04:32:28;;;;;;;9.90;3.92;;;;;;;-146.07;100.00;70291.31;10422678;28;20147;-70
2023/04/14 04:37:30;;;;;;;4.72;2.80;;;;;;;-146.07;100.00;70291.31;10423796;28;20028;-71
2023/04/14 04:42:31;;;;;;;4.70;3.50;;;;;;;-146.07;100.00;70291.31;10408635;28;20059;-71
2023/04/14 04:47:31;;;;;;;5.40;2.50;;;;;;;-146.07;100.00;70291.31;10422300;28;20036;-71
2023/04/14 04:52:32;;;;;;;6.18;2.65;;;;;;;-146.07;100.00;70291.31;10411985;28;20151;-70
2023/04/14 04:57:32;;;;;;;11.68;2.70;;;;;;;-146.07;100.00;70291.31;10402694;28;20103;-71
2023/04/14 05:02:33;;;;;;;4.45;2.95;;;;;;;-146.07;100.00;70291.31;10404388;28;20067;-70
2023/04/14 05:07:33;;;;;;;7.72;3.83;;;;;;;-146.07;100.00;70291.31;10408783;28;20379;-74
2023/04/14 05:12:34;;;;;;;6.88;3.60;;;;;;;-146.07;100.00;70291.31;10415069;28;20033;-73
2023/04/14 05:17:35;;;;;;;16.45;5.85;;;;;;;-146.07;100.00;70291.31;10409299;28;20416;-72
2023/04/14 05:22:36;;;;;;;8.07;4.43;;;;;;;-146.07;100.00;70291.31;10427764;28;20036;-72
2023/04/14 05:27:36;;;;;;;7.20;3.00;;;;;;;-146.07;100.00;70291.31;10424795;28;20395;-73
2023/04/14 05:32:37;;;;;;;10.73;3.03;;;;;;;-146.07;100.00;70291.31;10423871;28;20294;-70
2023/04/14 05:37:37;;;;;;;8.03;3.37;;;;;;;-146.07;100.00;70291.31;10426954;28;20863;-74
2023/04/14 05:42:39;;;;;;;4.63;2.95;;;;;;;-146.07;100.00;70291.31;10436080;28;20370;-81
2023/04/14 05:47:40;;;;;;;10.13;4.20;;;;;;;-146.07;100.00;70291.31;10400558;28;20494;-73
2023/04/14 05:52:40;;;;;;;5.97;3.60;;;;;;;-146.07;100.00;70291.31;10425963;28;20028;-76
2023/04/14 05:57:42;;;;;;;10.60;4.40;;;;;;;-146.07;100.00;70291.31;10408366;28;20032;-70
2023/04/14 06:02:43;;;;;;;8.40;3.42;;;;;;;-146.07;100.00;70291.31;10423273;28;20039;-75
2023/04/14 06:07:45;;;;;;;12.10;3.83;;;;;;;-146.07;100.00;70291.31;10433320;28;20060;-74
2023/04/14 06:12:46;;;;;;;8.80;3.85;;;;;;;-146.07;100.00;70291.31;10414683;28;20033;-74
2023/04/14 06:17:47;;;;;;;10.13;4.20;;;;;;;-146.07;100.00;70291.31;10430232;28;20040;-73
2023/04/14 06:22:47;;;;;;;14.18;4.13;;;;;;;-146.07;100.00;70291.31;10415581;28;20386;-75
2023/04/14 06:27:48;;;;;;;11.93;3.80;;;;;;;-146.07;100.00;70291.31;10417963;28;20033;-75
2023/04/14 06:32:52;;;;;;;13.98;4.40;;;;;;;-146.07;100.00;70291.31;10420037;28;20286;-72
2023/04/14 06:37:53;;;;;;;15.30;4.10;;;;;;;-146.07;100.00;70291.31;10414785;28;20034;-74
2023/04/14 06:42:54;;;;;;;12.88;4.28;;;;;;;-146.07;100.00;70291.31;10416312;28;20424;-71
2023/04/14 06:47:55;;;;;;;12.38;3.33;;;;;;;-146.07;100.00;70291.31;10426389;28;20509;-74
2023/04/14 06:52:56;;;;;;;7.85;3.30;;;;;;;-146.07;100.00;70291.31;10411192;28;20037;-76
2023/04/14 06:57:56;;;;;;;8.47;3.73;;;;;;;-146.07;100.00;70291.31;10422957;28;20238;-70
2023/04/14 07:02:56;;;;;;;7.80;2.87;;;;;;;-146.07;100.00;70291.31;10429119;28;20317;-71
2023/04/14 07:07:57;;;;;;;8.73;3.15;;;;;;;-146.07;100.00;70291.31;10432818;28;20307;-70
2023/04/14 07:12:57;;;;;;;9.73;1.88;;;;;;;-146.07;100.00;70291.31;10427477;28;20076;-70
2023/04/14 07:17:58;;;;;;;8.23;2.27;;;;;;;-146.07;100.00;70291.31;10424858;28;20049;-70
2023/04/14 07:22:58;;;;;;;6.32;1.90;;;;;;;-146.07;100.00;70291.31;10435579;28;20809;-70
2023/04/14 07:27:59;;;;;;;12.23;2.78;;;;;;;-146.07;100.00;70291.31;10422573;28;20057;-71
2023/04/14 07:33:01;;;;;;;3.60;2.30;;;;;;;-146.07;100.00;70291.31;10425544;28;20037;-72
2023/04/14 07:38:01;;;;;;;13.38;2.40;;;;;;;-146.07;100.00;70291.31;10432133;28;20277;-71
2023/04/14 07:43:02;;;;;;;2.35;1.80;;;;;;;-146.07;100.00;70291.31;10428685;28;20027;-71
2023/04/14 07:48:02;;;;;;;9.98;2.08;;;;;;;-146.07;100.00;70291.31;10434418;28;20032;-70
2023/04/14 07:53:03;;;;;;;5.95;1.85;;;;;;;-146.07;100.00;70291.31;10444519;28;20406;-71
2023/04/14 07:58:03;;;;;;;6.03;2.00;;;;;;;-146.07;100.00;70291.31;10443632;28;20033;-71
2023/04/14 08:03:04;;;;;;;4.47;2.10;;;;;;;-146.07;100.00;70291.31;10436859;28;20029;-72
2023/04/14 08:08:04;;;;;;;7.30;2.63;;;;;;;-146.07;100.00;70291.31;10442876;28;20287;-72
2023/04/14 08:13:05;;;;;;;8.00;2.13;;;;;;;-146.07;100.00;70291.31;10434803;28;20032;-72
2023/04/14 08:18:05;;;;;;;10.45;2.78;;;;;;;-146.07;100.00;70291.31;10443351;28;20126;-72
2023/04/14 08:23:06;;;;;;;6.27;2.43;;;;;;;-146.07;100.00;70291.31;10435164;28;20094;-72
2023/04/14 08:28:06;;;;;;;4.55;1.77;;;;;;;-146.07;100.00;70291.31;10437607;28;20066;-72
2023/04/14 08:33:06;;;;;;;7.13;1.60;;;;;;;-146.07;100.00;70291.31;10403534;28;20040;-72
2023/04/14 08:38:07;;;;;;;6.25;1.60;;;;;;;-146.07;100.00;70291.31;10437215;28;20385;-72
2023/04/14 08:43:09;;;;;;;10.68;1.95;;;;;;;-146.07;100.00;70291.31;10436772;28;20506;-71
2023/04/14 08:48:14;;;;;;;3.53;1.83;;;;;;;-146.07;100.00;70291.31;10444139;28;20503;-72
2023/04/14 08:53:17;;;;;;;10.02;1.85;;;;;;;-146.07;100.00;70291.31;10433694;28;20021;-73
2023/04/14 08:58:17;;;;;;;8.30;2.20;;;;;;;-146.07;100.00;70291.31;10436588;28;20404;-73
2023/04/14 09:03:18;;;;;;;14.60;2.80;;;;;;;-146.07;100.00;70291.31;10441219;28;20033;-73
2023/04/14 09:08:19;;;;;;;17.35;2.55;;;;;;;-146.07;100.00;70291.31;10436781;28;20040;-72
2023/04/14 09:13:21;;;;;;;15.00;1.98;;;;;;;-146.07;100.00;70291.31;10442311;28;20016;-73
2023/04/14 09:18:24;;;;;;;15.98;2.40;;;;;;;-146.07;100.00;70291.31;10445900;28;20507;-73
2023/04/14 09:23:24;;;;;;;21.02;2.97;;;;;;;-146.07;100.00;70291.31;10430163;28;20025;-72
2023/04/14 09:28:25;;;;;;;10.67;2.23;;;;;;;-146.07;100.00;70291.31;10439686;28;20035;-73
2023/04/14 09:33:25;;;;;;;19.33;2.22;;;;;;;-146.07;100.00;70291.31;10402571;28;20785;-73
2023/04/14 09:38:38;;;;;;;9.20;1.70;;;;;;;-146.07;100.00;70291.31;10434494;28;20024;-72
2023/04/14 09:43:38;;;;;;;11.80;1.77;;;;;;;-146.07;100.00;70291.31;10442946;28;20098;-72
2023/04/14 09:49:08;;;;;;;15.63;2.23;;;;;;;-146.07;100.00;70291.31;10445043;28;20091;-73
2023/04/14 09:54:09;;;;;;;10.75;1.75;;;;;;;-146.07;100.00;70291.31;10418317;28;20794;-73
2023/04/14 09:59:10;;;;;;;12.90;3.23;;;;;;;-146.07;100.00;70291.31;10417898;28;20029;-73
2023/04/14 10:04:25;;;;;;;11.20;1.70;;;;;;;-146.07;100.00;70291.31;10437582;28;21717;-73
2023/04/14 10:09:29;;;;;;;16.90;2.25;;;;;;;-146.07;100.00;70291.31;10438446;28;20522;-72
2023/04/14 10:14:30;;;;;;;14.30;3.70;;;;;;;-146.07;100.00;70291.31;10432897;28;20104;-72
2023/04/14 10:19:30;;;;;;;12.27;1.87;;;;;;;-146.07;100.00;70291.31;10425506;28;20383;-72
2023/04/14 10:24:31;;;;;;;17.45;2.90;;;;;;;-146.07;100.00;70291.31;10437859;28;20040;-72
2023/04/14 10:29:32;;;;;;;15.98;3.15;;;;;;;-146.07;100.00;70291.31;10443258;28;20387;-72
2023/04/14 10:34:33;;;;;;;15.55;2.15;;;;;;;-146.07;100.00;70291.31;10439802;28;20017;-73
2023/04/14 10:39:35;;;;;;;14.52;3.00;;;;;;;-146.07;100.00;70291.31;10434247;28;20032;-72
2023/04/14 10:44:36;;;;;;;17.65;3.25;;;;;;;-146.07;100.00;70291.31;10421620;28;20032;-73
2023/04/14 10:49:38;;;;;;;8.68;1.88;;;;;;;-146.07;100.00;70291.31;10432686;28;20024;-73
2023/04/14 10:55:16;;;;;;;10.30;2.03;;;;;;;-146.07;100.00;70291.31;10434854;28;20120;-72
2023/04/14 11:00:23;;;;;;;10.27;1.47;;;;;;;-146.07;100.00;70291.31;10438636;28;20059;-72
2023/04/14 11:05:23;;;;;;;1.80;1.07;;;;;;;-146.07;100.00;70291.31;10432948;28;20094;-71
2023/04/14 11:10:25;;;;;;;2.70;0.90;;;;;;;-146.07;100.00;70291.31;10405837;28;20078;-71
2023/04/14 11:16:00;;;;;;;1.60;0.70;;;;;;;-146.07;100.00;70291.31;10452187;28;20056;-71
2023/04/14 11:21:13;;;;;;;0.57;0.30;;;;;;;-146.07;100.00;70291.31;10424504;28;20028;-72
2023/04/14 11:26:14;;;;;;;3.38;0.43;;;;;;;-146.07;100.00;70291.31;10434849;28;20110;-71
2023/04/14 11:31:16;;;;;;;0.93;0.40;;;;;;;-146.07;100.00;70291.31;10449978;28;20170;-70
2023/04/14 11:36:16;;;;;;;0.85;0.28;;;;;;;-146.07;100.00;70291.31;10450881;28;20302;-74
2023/04/14 11:41:17;;;;;;;1.75;0.70;;;;;;;-146.07;100.00;70291.31;10439133;28;20535;-73
2023/04/14 11:46:19;;;;;;;2.05;0.55;;;;;;;-146.07;100.00;70291.31;10444324;28;20056;-73
2023/04/14 11:51:20;;;;;;;2.55;0.40;;;;;;;-146.07;100.00;70291.31;10442996;28;20075;-73
2023/04/14 11:56:20;;;;;;;0.38;0.30;;;;;;;-146.07;100.00;70291.31;10445794;28;20032;-72
2023/04/14 12:01:22;;;;;;;3.05;0.20;;;;;;;-146.07;100.00;70291.31;10464648;28;20028;-72
2023/04/14 12:06:26;;;;;;;0.35;0.28;;;;;;;-146.07;100.00;70291.31;10462705;28;20036;-72
2023/04/14 12:11:26;;;;;;;2.78;0.40;;;;;;;-146.07;100.00;70291.31;10451670;28;20025;-72
2023/04/14 12:16:27;;;;;;;2.93;0.63;;;;;;;-146.07;100.00;70291.31;10457029;28;20048;-73
2023/04/14 12:21:27;;;;;;;1.15;0.60;;;;;;;-146.07;100.00;70291.31;10447473;28;20757;-73
2023/04/14 12:26:29;;;;;;;1.40;0.32;;;;;;;-146.07;100.00;70291.31;10457160;28;20031;-73
2023/04/14 12:31:29;;;;;;;3.65;0.50;;;;;;;-146.07;100.00;70291.31;10459015;28;20025;-73
2023/04/14 12:36:30;;;;;;;3.67;0.80;;;;;;;-146.07;100.00;70291.31;10459589;28;20016;-74
2023/04/14 12:41:31;;;;;;;1.45;1.08;;;;;;;-146.07;100.00;70291.31;10455536;28;20459;-73
2023/04/14 12:46:32;;;;;;;1.60;0.88;;;;;;;-146.07;100.00;70291.31;10446498;28;20028;-72
2023/04/14 12:51:38;;;;;;;1.63;0.60;;;;;;;-146.07;100.00;70291.31;10448235;28;20464;-74
2023/04/14 12:56:41;;;;;;;0.60;0.47;;;;;;;-146.07;100.00;70291.31;10442238;28;20032;-72
2023/04/14 13:01:41;;;;;;;0.98;0.47;;;;;;;-146.07;100.00;70291.31;10448609;28;20040;-72
2023/04/14 13:06:42;;;;;;;5.03;0.15;;;;;;;-146.07;100.00;70291.31;10440879;28;20032;-72
2023/04/14 13:11:43;;;;;;;0.75;0.40;;;;;;;-146.07;100.00;70291.31;10445609;28;20027;-71
2023/04/14 13:16:43;;;;;;;0.55;0.30;;;;;;;-146.07;100.00;70291.31;10441501;28;20121;-72
2023/04/14 13:21:44;;;;;;;0.10;0.10;;;;;;;-146.07;100.00;70291.31;10444598;28;20025;-73
2023/04/14 13:26:45;;;;;;;1.15;0.20;;;;;;;-146.07;100.00;70291.31;10444065;28;20024;-73
2023/04/14 13:31:45;;;;;;;0.55;0.40;;;;;;;-146.07;100.00;70291.31;10442059;28;20028;-72
2023/04/14 13:36:46;;;;;;;0.20;0.20;;;;;;;-146.07;100.00;70291.31;10435979;28;20437;-72
2023/04/14 13:41:46;;;;;;;4.47;0.30;;;;;;;-146.07;100.00;70291.31;10435800;28;20017;-72
2023/04/14 13:46:49;;;;;;;0.88;0.13;;;;;;;-146.07;100.00;70291.31;10440633;28;20017;-73
2023/04/14 13:51:50;;;;;;;0.77;0.20;;;;;;;-146.07;100.00;70291.31;10436262;28;20027;-73
2023/04/14 13:56:51;;;;;;;1.42;0.30;;;;;;;-146.07;100.00;70291.31;10444120;28;20016;-73
2023/04/14 14:01:51;;;;;;;0.80;0.22;;;;;;;-146.07;100.00;70291.31;10437601;28;20032;-72
2023/04/14 14:06:52;;;;;;;2.10;0.47;;;;;;;-146.07;100.00;70291.31;10439845;28;20517;-72
2023/04/14 14:11:52;;;;;;;0.75;0.30;;;;;;;-146.07;100.00;70291.31;10437438;28;20107;-72
2023/04/14 14:16:53;;;;;;;1.77;0.63;;;;;;;-146.07;100.00;70291.31;10450940;28;20379;-72
2023/04/14 14:21:54;;;;;;;3.58;0.70;;;;;;;-146.07;100.00;70291.31;10438264;28;20320;-73
2023/04/14 14:26:55;;;;;;;0.30;0.25;;;;;;;-146.07;100.00;70291.31;10440453;28;20020;-73
2023/04/14 14:31:56;;;;;;;1.17;0.40;;;;;;;-146.07;100.00;70291.31;10426433;28;21017;-73
2023/04/14 14:36:56;;;;;;;2.22;0.80;;;;;;;-146.07;100.00;70291.31;10429208;28;20549;-73
2023/04/14 14:41:57;;;;;;;1.55;0.55;;;;;;;-146.07;100.00;70291.31;10435161;28;20112;-72
2023/04/14 14:46:58;;;;;;;4.57;1.35;;;;;;;-146.07;100.00;70291.31;10439536;28;20025;-73
2023/04/14 14:52:01;;;;;;;0.90;0.50;;;;;;;-146.07;100.00;70291.31;10431720;28;20019;-73
2023/04/14 14:57:01;;;;;;;1.55;0.88;;;;;;;-146.07;100.00;70291.31;10437359;28;20020;-72
2023/04/14 15:02:02;;;;;;;6.57;0.75;;;;;;;-146.07;100.00;70291.31;10435489;28;20131;-72
2023/04/14 15:07:02;;;;;;;3.22;1.00;;;;;;;-146.07;100.00;70291.31;10435168;28;20478;-74
2023/04/14 15:12:03;;;;;;;2.47;0.55;;;;;;;-146.07;100.00;70291.31;10432680;28;20021;-73
2023/04/14 15:17:03;;;;;;;3.10;0.77;;;;;;;-146.07;100.00;70291.31;10431460;28;20166;-73
2023/04/14 15:22:04;;;;;;;0.80;0.40;;;;;;;-146.07;100.00;70291.31;10432183;28;20028;-74
2023/04/14 15:27:04;;;;;;;8.20;0.93;;;;;;;-146.07;100.00;70291.31;10426128;28;20021;-73
2023/04/14 15:32:05;;;;;;;1.90;0.73;;;;;;;-146.07;100.00;70291.31;10433261;28;20443;-72
2023/04/14 15:37:05;;;;;;;1.17;0.70;;;;;;;-146.07;100.00;70291.31;10441139;28;20025;-73
2023/04/14 15:42:06;;;;;;;2.40;0.77;;;;;;;-146.07;100.00;70291.31;10429433;28;20267;-74
2023/04/14 15:47:06;;;;;;;4.50;0.50;;;;;;;-146.07;100.00;70291.31;10426003;28;20063;-74
2023/04/14 15:52:07;;;;;;;1.75;0.77;;;;;;;-146.07;100.00;70291.31;10410922;28;20279;-73
2023/04/14 15:57:07;;;;;;;8.95;1.35;;;;;;;-146.07;100.00;70291.31;10434917;28;20391;-73
2023/04/14 16:02:08;;;;;;;7.88;0.70;;;;;;;-146.07;100.00;70291.31;10438953;28;20043;-73
2023/04/14 16:07:08;;;;;;;1.30;0.40;;;;;;;-146.07;100.00;70291.31;10430813;28;20089;-72
2023/04/14 16:12:09;;;;;;;0.73;0.40;;;;;;;-146.07;100.00;70291.31;10431472;28;20120;-73
2023/04/14 16:17:09;;;;;;;2.40;0.30;;;;;;;-146.07;100.00;70291.31;10448212;28;20048;-72
2023/04/14 16:22:10;;;;;;;2.65;0.50;;;;;;;-146.07;100.00;70291.31;10434513;28;20028;-73
2023/04/14 16:27:10;;;;;;;1.40;0.52;;;;;;;-146.07;100.00;70291.31;10448532;28;20051;-73
2023/04/14 16:32:11;;;;;;;2.97;0.70;;;;;;;-146.07;100.00;70291.31;10436143;28;20028;-73
2023/04/14 16:37:11;;;;;;;3.38;0.80;;;;;;;-146.07;100.00;70291.31;10441489;28;20129;-73
2023/04/14 16:42:12;;;;;;;5.32;1.30;;;;;;;-146.07;100.00;70291.31;10436498;28;20044;-72
2023/04/14 16:47:12;;;;;;;9.45;2.00;;;;;;;-146.07;100.00;70291.31;10440805;28;20032;-72
2023/04/14 16:52:13;;;;;;;4.20;1.05;;;;;;;-146.07;100.00;70291.31;10438336;28;20024;-73
2023/04/14 16:57:14;;;;;;;8.70;1.10;;;;;;;-146.07;100.00;70291.31;10440808;28;20032;-73
2023/04/14 17:02:14;;;;;;;6.60;1.80;;;;;;;-146.07;100.00;70291.31;10432039;28;20442;-72
2023/04/14 17:07:15;;;;;;;5.57;2.78;;;;;;;-146.07;100.00;70291.31;10439706;28;20029;-72
2023/04/14 17:12:16;;;;;;;5.65;1.52;;;;;;;-146.07;100.00;70291.31;10428078;28;20542;-72
2023/04/14 17:17:17;;;;;;;1.85;1.65;;;;;;;-146.07;100.00;70291.31;10437766;28;20124;-72
2023/04/14 17:22:17;;;;;;;4.95;1.67;;;;;;;-146.07;100.00;70291.31;10440749;28;20025;-72
2023/04/14 17:27:18;;;;;;;2.53;1.60;;;;;;;-146.07;100.00;70291.31;10437750;28;20665;-74
2023/04/14 17:32:18;;;;;;;5.68;1.58;;;;;;;-146.07;100.00;70291.31;10434930;28;20042;-72
2023/04/14 17:37:19;;;;;;;3.05;1.77;;;;;;;-146.07;100.00;70291.31;10433849;28;20444;-72
2023/04/14 17:42:20;;;;;;;2.15;1.30;;;;;;;-146.07;100.00;70291.31;10437977;28;20047;-72
2023/04/14 17:47:20;;;;;;;3.85;1.60;;;;;;;-146.07;100.00;70291.31;10431041;28;20096;-73
2023/04/14 17:52:21;;;;;;;3.78;1.30;;;;;;;-146.07;100.00;70291.31;10440852;28;20033;-75
2023/04/14 17:57:23;;;;;;;5.95;1.75;;;;;;;-146.07;100.00;70291.31;10430601;28;20032;-73
2023/04/14 18:02:23;;;;;;;4.32;1.83;;;;;;;-146.07;100.00;70291.31;10432364;28;20439;-72
2023/04/14 18:07:24;;;;;;;2.67;1.23;;;;;;;-146.07;100.00;70291.31;10420120;28;20093;-70
2023/04/14 18:12:24;;;;;;;7.30;1.70;;;;;;;-146.07;100.00;70291.31;10430292;28;20756;-70
2023/04/14 18:17:25;;;;;;;8.85;1.40;;;;;;;-146.07;100.00;70291.31;10422334;28;20818;-70
2023/04/14 18:22:26;;;;;;;15.93;3.63;;;;;;;-146.07;100.00;70291.31;10423343;28;20028;-70
2023/04/14 18:27:26;;;;;;;9.18;2.90;;;;;;;-146.07;100.00;70291.31;10420770;28;20041;-70
2023/04/14 18:32:28;;;;;;;5.10;2.33;;;;;;;-146.07;100.00;70291.31;10417982;28;20372;-69
2023/04/14 18:37:29;;;;;;;2.28;1.25;;;;;;;-146.07;100.00;70291.31;10394970;28;20268;-70
2023/04/14 18:42:30;;;;;;;4.80;2.38;;;;;;;-146.07;100.00;70291.31;10422747;28;20542;-68
2023/04/14 18:47:30;;;;;;;10.93;1.70;;;;;;;-146.07;100.00;70291.31;10416101;28;20080;-68
2023/04/14 18:52:31;;;;;;;2.35;1.30;;;;;;;-146.07;100.00;70291.31;10418705;28;20446;-68
2023/04/14 18:57:32;;;;;;;5.80;1.90;;;;;;;-146.07;100.00;70291.31;10393624;28;20056;-70
2023/04/14 19:02:33;;;;;;;8.25;2.75;;;;;;;-146.07;100.00;70291.31;10405583;28;20415;-69
2023/04/14 19:07:33;;;;;;;2.03;1.20;;;;;;;-146.07;100.00;70291.31;10427142;28;20090;-69
2023/04/14 19:12:36;;;;;;;7.88;1.20;;;;;;;-146.07;100.00;70291.31;10420816;28;20510;-70
2023/04/14 19:17:37;;;;;;;2.15;1.10;;;;;;;-146.07;100.00;70291.31;10411205;28;20056;-69
2023/04/14 19:22:38;;;;;;;4.97;1.33;;;;;;;-146.07;100.00;70291.31;10392866;28;20161;-69
2023/04/14 19:27:39;;;;;;;1.73;0.82;;;;;;;-146.07;100.00;70291.31;10426342;28;20028;-69
2023/04/14 19:32:40;;;;;;;4.13;0.90;;;;;;;-146.07;100.00;70291.31;10418658;28;20040;-69
2023/04/14 19:37:41;;;;;;;1.90;0.90;;;;;;;-146.07;100.00;70291.31;10420770;28;20029;-69
2023/04/14 19:42:41;;;;;;;4.47;1.75;;;;;;;-146.07;100.00;70291.31;10415113;28;20025;-70
2023/04/14 19:47:42;;;;;;;4.53;1.05;;;;;;;-146.07;100.00;70291.31;10424775;28;20593;-68
2023/04/14 19:52:45;;;;;;;2.28;1.13;;;;;;;-146.07;100.00;70291.31;10406227;28;20403;-69
2023/04/14 19:57:46;;;;;;;3.95;2.30;;;;;;;-146.07;100.00;70291.31;10443757;28;20033;-69
2023/04/14 20:02:46;;;;;;;3.55;1.55;;;;;;;-146.07;100.00;70291.31;10431473;28;20455;-69
2023/04/14 20:07:46;;;;;;;4.68;1.42;;;;;;;-146.07;100.00;70291.31;10411975;28;20064;-70
2023/04/14 20:12:48;;;;;;;2.22;1.33;;;;;;;-146.07;100.00;70291.31;10426049;28;20052;-68
2023/04/14 20:17:49;;;;;;;3.97;1.83;;;;;;;-146.07;100.00;70291.31;10431687;28;20124;-68
2023/04/14 20:22:49;;;;;;;3.88;1.60;;;;;;;-146.07;100.00;70291.31;10436603;28;20665;-69
2023/04/14 20:27:50;;;;;;;5.78;1.25;;;;;;;-146.07;100.00;70291.31;10404354;28;20415;-69
2023/04/14 20:32:51;;;;;;;1.38;0.98;;;;;;;-146.07;100.00;70291.31;10434310;28;20123;-70
2023/04/14 20:37:52;;;;;;;2.80;1.45;;;;;;;-146.07;100.00;70291.31;10425368;28;20369;-68
2023/04/14 20:42:53;;;;;;;1.90;0.85;;;;;;;-146.07;100.00;70291.31;10430849;28;20454;-72
2023/04/14 20:47:54;;;;;;;3.90;1.10;;;;;;;-146.07;100.00;70291.31;10416421;28;20036;-72
2023/04/14 20:52:54;;;;;;;2.50;1.48;;;;;;;-146.07;100.00;70291.31;10430094;28;20037;-72
2023/04/14 20:57:55;;;;;;;3.25;1.63;;;;;;;-146.07;100.00;70291.31;10420674;28;20415;-72
2023/04/14 21:02:55;;;;;;;4.13;1.27;;;;;;;-146.07;100.00;70291.31;10394925;28;20040;-72
2023/04/14 21:07:56;;;;;;;6.13;1.58;;;;;;;-146.07;100.00;70291.31;10419133;28;20047;-72
2023/04/14 21:12:57;;;;;;;3.22;1.55;;;;;;;-146.07;100.00;70291.31;10429459;28;20404;-71
2023/04/14 21:18:01;;;;;;;3.25;1.40;;;;;;;-146.07;100.00;70291.31;10411232;28;20107;-72
2023/04/14 21:23:01;;;;;;;1.90;1.33;;;;;;;-146.07;100.00;70291.31;10424711;28;20033;-72
2023/04/14 21:28:02;;;;;;;2.83;1.30;;;;;;;-146.07;100.00;70291.31;10428594;28;20029;-71
2023/04/14 21:33:03;;;;;;;5.43;1.92;;;;;;;-146.07;100.00;70291.31;10410724;28;20039;-71
2023/04/14 21:38:04;;;;;;;5.22;2.47;;;;;;;-146.07;100.00;70291.31;10428664;28;20036;-71
2023/04/14 21:43:05;;;;;;;4.18;2.15;;;;;;;-146.07;100.00;70291.31;10426864;28;20040;-71
2023/04/14 21:48:05;;;;;;;6.05;3.53;;;;;;;-146.07;100.00;70291.31;10427975;28;20415;-71
2023/04/14 21:53:05;;;;;;;9.30;3.78;;;;;;;-146.07;100.00;70291.31;10427970;28;20443;-72
2023/04/14 21:58:06;;;;;;;10.97;2.83;;;;;;;-146.07;100.00;70291.31;10427606;28;20060;-72
2023/04/14 22:03:09;;;;;;;5.15;2.80;;;;;;;-146.07;100.00;70291.31;10427189;28;20291;-71
2023/04/14 22:08:10;;;;;;;6.20;3.20;;;;;;;-146.07;100.00;70291.31;10427259;28;20468;-72
2023/04/14 22:13:11;;;;;;;10.90;4.03;;;;;;;-146.07;100.00;70291.31;10426093;28;20029;-71
2023/04/14 22:18:12;;;;;;;5.65;3.20;;;;;;;-146.07;100.00;70291.31;10426461;28;20056;-71
2023/04/14 22:23:12;;;;;;;5.10;2.37;;;;;;;-146.07;100.00;70291.31;10426700;28;20370;-72
2023/04/14 22:28:13;;;;;;;3.92;2.55;;;;;;;-146.07;100.00;70291.31;10424479;28;20353;-71
2023/04/14 22:33:13;;;;;;;6.53;1.85;;;;;;;-146.07;100.00;70291.31;10427050;28;20481;-71